Time;durP1;ratioP1;P1;durP2;ratioP2;P2;SDS_P1;SDS_P2;PMS_P1;PMS_P2;Temp;Humidity;BMP_temperature;BMP_pressure;BME280_temperature;BME280_humidity;BME280_pressure;Samples;Min_cycle;Max_cycle;Signal;HPM_P1;HPM_P2
2021/05/04 00:00:40;;;;;;;5.15;2.97;;;;;;;10.44;42.75;99862.84;4966184;28;20349;-50
2021/05/04 00:03:05;;;;;;;5.30;3.08;;;;;;;10.44;42.50;99856.72;4966899;28;20051;-50
2021/05/04 00:05:31;;;;;;;5.55;2.95;;;;;;;10.43;42.62;99844.59;4969286;28;20151;-50
2021/05/04 00:07:57;;;;;;;4.72;2.50;;;;;;;10.41;43.00;99836.75;4968749;28;20048;-48
2021/05/04 00:10:22;;;;;;;4.50;2.40;;;;;;;10.41;43.11;99836.75;4968234;28;20197;-50
2021/05/04 00:12:50;;;;;;;4.25;2.80;;;;;;;10.41;43.31;99828.91;4952212;28;20688;-51
2021/05/04 00:15:16;;;;;;;4.38;2.40;;;;;;;10.39;43.57;99817.63;4962959;28;20042;-50
2021/05/04 00:17:42;;;;;;;4.20;2.63;;;;;;;10.39;42.58;99812.41;4980762;28;20093;-49
2021/05/04 00:20:08;;;;;;;5.13;2.72;;;;;;;10.38;42.75;99800.22;4964378;28;20103;-50
2021/05/04 00:22:34;;;;;;;4.45;2.47;;;;;;;10.38;42.73;99781.94;4948906;28;20058;-49
2021/05/04 00:24:59;;;;;;;4.07;2.80;;;;;;;10.38;43.20;99780.22;4968616;28;20085;-50
2021/05/04 00:27:25;;;;;;;4.28;2.78;;;;;;;10.37;43.53;99770.63;4966911;28;20042;-49
2021/05/04 00:30:05;;;;;;;5.00;2.55;;;;;;;10.37;42.94;99761.91;4955777;28;20458;-51
2021/05/04 00:32:33;;;;;;;3.88;2.55;;;;;;;10.35;42.93;99755.88;4953268;28;20975;-52
2021/05/04 00:34:58;;;;;;;3.95;2.60;;;;;;;10.34;42.99;99741.97;4971214;28;20034;-49
2021/05/04 00:37:24;;;;;;;4.20;2.45;;;;;;;10.35;42.91;99742.81;4976092;28;20129;-51
2021/05/04 00:39:49;;;;;;;4.25;2.50;;;;;;;10.34;42.95;99731.50;4953144;28;20043;-50
2021/05/04 00:42:15;;;;;;;3.63;2.42;;;;;;;10.33;43.30;99718.44;4959176;28;20038;-52
2021/05/04 00:44:41;;;;;;;4.32;2.60;;;;;;;10.34;42.90;99705.38;4969108;28;20050;-51
2021/05/04 00:47:07;;;;;;;4.78;2.60;;;;;;;10.33;43.12;99695.78;4970549;28;20080;-48
2021/05/04 00:49:33;;;;;;;4.63;2.30;;;;;;;10.35;43.23;99695.78;4971687;28;20042;-49
2021/05/04 00:51:58;;;;;;;4.43;2.50;;;;;;;10.35;42.91;99688.78;4967441;28;20073;-53
2021/05/04 00:54:24;;;;;;;4.93;2.60;;;;;;;10.35;42.75;99691.41;4966748;28;20420;-49
2021/05/04 00:56:54;;;;;;;3.85;2.50;;;;;;;10.34;42.88;99683.56;4967709;28;20038;-50
2021/05/04 00:59:22;;;;;;;4.25;2.42;;;;;;;10.35;43.04;99680.13;4969474;28;20043;-50
2021/05/04 01:01:49;;;;;;;4.63;2.50;;;;;;;10.34;42.95;99674.03;4982234;28;20435;-49
2021/05/04 01:04:16;;;;;;;4.30;2.45;;;;;;;10.36;43.05;99655.72;4971246;28;20302;-49
2021/05/04 01:06:42;;;;;;;3.47;2.10;;;;;;;10.36;43.24;99650.50;4973440;28;20059;-49
2021/05/04 01:09:07;;;;;;;3.97;2.58;;;;;;;10.37;43.20;99645.22;4973259;28;20340;-50
2021/05/04 01:11:33;;;;;;;4.32;2.50;;;;;;;10.38;42.80;99646.09;4970304;28;20050;-49
2021/05/04 01:13:59;;;;;;;4.32;2.33;;;;;;;10.38;42.92;99631.28;4971531;28;20045;-49
2021/05/04 01:16:25;;;;;;;4.50;2.40;;;;;;;10.39;43.07;99625.16;4971922;28;20061;-49
2021/05/04 01:18:52;;;;;;;4.32;2.45;;;;;;;10.39;42.57;99619.91;4972002;28;20257;-50
2021/05/04 01:21:18;;;;;;;3.53;2.20;;;;;;;10.39;42.87;99616.47;4961271;28;20065;-50
2021/05/04 01:23:44;;;;;;;3.78;2.20;;;;;;;10.42;43.24;99602.47;4972165;28;20041;-49
2021/05/04 01:26:10;;;;;;;3.65;2.45;;;;;;;10.42;43.29;99599.88;4969689;28;20050;-50
2021/05/04 01:28:35;;;;;;;4.65;2.40;;;;;;;10.43;43.58;99593.75;4969845;28;20049;-50
2021/05/04 01:31:01;;;;;;;3.60;2.30;;;;;;;10.43;43.41;99589.38;4970162;28;20511;-50
2021/05/04 01:33:27;;;;;;;2.95;2.00;;;;;;;10.44;43.54;99585.88;4972029;28;20513;-49
2021/05/04 01:35:52;;;;;;;3.78;2.30;;;;;;;10.46;43.21;99572.78;4962327;28;20046;-51
2021/05/04 01:38:18;;;;;;;4.57;2.40;;;;;;;10.47;42.78;99572.75;4951927;28;20754;-49
2021/05/04 01:40:44;;;;;;;5.25;2.20;;;;;;;10.48;42.52;99566.63;4964257;28;20066;-49
2021/05/04 01:43:10;;;;;;;3.30;2.30;;;;;;;10.49;42.80;99567.47;4969323;28;20046;-48
2021/05/04 01:45:35;;;;;;;4.45;2.42;;;;;;;10.50;43.34;99558.75;4958581;28;20113;-49
2021/05/04 01:48:01;;;;;;;6.00;2.58;;;;;;;10.50;43.19;99559.59;4964014;28;20089;-49
2021/05/04 01:50:30;;;;;;;3.75;2.35;;;;;;;10.50;43.25;99549.16;4970127;28;20057;-48
2021/05/04 01:52:55;;;;;;;3.97;2.10;;;;;;;10.54;43.13;99549.94;4969004;28;20041;-48
2021/05/04 01:55:21;;;;;;;3.20;2.25;;;;;;;10.54;42.96;99548.19;4956770;28;20595;-48
2021/05/04 01:57:47;;;;;;;5.13;2.17;;;;;;;10.55;42.69;99541.22;4960898;28;20042;-48
2021/05/04 02:00:14;;;;;;;3.28;2.20;;;;;;;10.55;43.48;99528.16;4962561;28;20499;-50
2021/05/04 02:02:39;;;;;;;4.18;2.20;;;;;;;10.57;42.85;99521.13;4960525;28;20041;-49
2021/05/04 02:05:06;;;;;;;5.55;2.45;;;;;;;10.59;43.26;99515.88;4979786;28;20743;-51
2021/05/04 02:07:32;;;;;;;4.20;2.13;;;;;;;10.62;43.04;99510.56;4972621;28;20445;-48
2021/05/04 02:09:58;;;;;;;4.22;2.20;;;;;;;10.62;42.40;99506.22;4970985;28;20042;-49
2021/05/04 02:12:24;;;;;;;4.78;2.10;;;;;;;10.63;42.48;99501.84;4967720;28;20090;-49
2021/05/04 02:14:54;;;;;;;3.50;2.20;;;;;;;10.64;42.60;99501.78;4975662;28;20042;-50
2021/05/04 02:17:20;;;;;;;3.42;2.10;;;;;;;10.65;42.34;99507.91;4973717;28;20061;-48
2021/05/04 02:19:46;;;;;;;5.53;2.42;;;;;;;10.66;42.59;99518.31;4972842;28;20569;-48
2021/05/04 02:22:11;;;;;;;4.00;2.10;;;;;;;10.67;42.62;99508.72;4952513;28;20038;-48
2021/05/04 02:24:37;;;;;;;3.50;2.17;;;;;;;10.68;42.77;99521.72;4966927;28;20042;-48
2021/05/04 02:27:03;;;;;;;3.20;2.00;;;;;;;10.69;43.12;99504.31;4961045;28;20265;-48
2021/05/04 02:29:28;;;;;;;4.05;1.90;;;;;;;10.70;43.29;99516.47;4959625;28;20096;-48
2021/05/04 02:32:11;;;;;;;3.08;2.00;;;;;;;10.69;43.31;99515.63;4974125;28;20096;-49
2021/05/04 02:34:36;;;;;;;4.22;1.88;;;;;;;10.71;43.50;99497.28;4976530;28;20486;-49
2021/05/04 02:37:02;;;;;;;6.93;2.05;;;;;;;10.69;43.91;99530.44;4968918;28;20076;-47
2021/05/04 02:39:28;;;;;;;4.05;1.88;;;;;;;10.65;43.72;99511.34;4967488;28;20483;-50
2021/05/04 02:41:54;;;;;;;4.03;1.83;;;;;;;10.64;44.00;99511.41;4969666;28;20430;-49
2021/05/04 02:44:20;;;;;;;2.97;1.60;;;;;;;10.62;44.89;99505.34;4973264;28;20046;-49
2021/05/04 02:46:46;;;;;;;2.97;1.63;;;;;;;10.61;45.08;99519.31;4969943;28;20070;-48
2021/05/04 02:49:11;;;;;;;4.43;1.73;;;;;;;10.59;45.70;99502.78;4958941;28;20041;-48
2021/05/04 02:51:37;;;;;;;3.65;1.60;;;;;;;10.54;45.60;99492.47;4970703;28;20875;-48
2021/05/04 02:54:03;;;;;;;4.25;1.55;;;;;;;10.50;45.70;99490.81;4971720;28;20065;-49
2021/05/04 02:56:28;;;;;;;3.83;1.48;;;;;;;10.46;45.99;99483.94;4971049;28;20701;-49
2021/05/04 02:58:54;;;;;;;3.35;1.58;;;;;;;10.42;46.25;99483.13;4969661;28;20029;-50
2021/05/04 03:01:20;;;;;;;2.78;1.45;;;;;;;10.38;46.57;99471.91;4973832;28;20095;-50
2021/05/04 03:03:45;;;;;;;2.80;1.50;;;;;;;10.35;46.57;99476.34;4966553;28;20046;-50
2021/05/04 03:06:11;;;;;;;2.15;1.42;;;;;;;10.30;46.82;99472.94;4957162;28;20065;-52
2021/05/04 03:08:37;;;;;;;3.72;1.70;;;;;;;10.27;46.38;99467.78;4957653;28;20046;-50
2021/05/04 03:11:03;;;;;;;6.18;1.80;;;;;;;10.23;46.75;99459.16;4968283;28;20069;-50
2021/05/04 03:13:32;;;;;;;2.65;1.40;;;;;;;10.19;46.90;99453.16;4970864;28;20646;-49
2021/05/04 03:15:58;;;;;;;3.42;1.42;;;;;;;10.14;47.42;99444.56;4970161;28;20318;-49
2021/05/04 03:18:23;;;;;;;2.58;1.48;;;;;;;10.11;47.25;99451.63;4968769;28;20046;-49
2021/05/04 03:20:51;;;;;;;3.08;1.42;;;;;;;10.06;47.38;99441.25;4973502;28;20042;-53
2021/05/04 03:23:18;;;;;;;2.80;1.60;;;;;;;10.02;47.28;99447.44;4974428;28;20144;-48
2021/05/04 03:25:45;;;;;;;2.63;1.30;;;;;;;9.98;47.62;99449.28;4987363;28;20057;-49
2021/05/04 03:28:10;;;;;;;3.08;1.60;;;;;;;9.94;47.66;99441.53;4969324;28;21601;-49
2021/05/04 03:30:37;;;;;;;1.98;1.20;;;;;;;9.91;48.21;99441.59;4967509;28;20195;-48
2021/05/04 03:33:03;;;;;;;2.22;1.30;;;;;;;9.87;48.11;99443.41;4968910;28;20960;-50
2021/05/04 03:35:29;;;;;;;3.35;1.50;;;;;;;9.83;48.04;99447.84;4969339;28;20347;-49
2021/05/04 03:37:55;;;;;;;2.65;1.40;;;;;;;9.80;49.10;99449.66;4969208;28;20038;-50
2021/05/04 03:40:20;;;;;;;3.22;1.50;;;;;;;9.76;48.26;99441.03;4967708;28;20113;-50
2021/05/04 03:42:46;;;;;;;3.00;2.03;;;;;;;9.74;48.71;99442.81;4967055;28;20304;-50
2021/05/04 03:45:12;;;;;;;3.20;1.48;;;;;;;9.71;48.93;99448.09;4960689;28;20335;-51
2021/05/04 03:47:39;;;;;;;3.75;1.52;;;;;;;9.67;49.10;99443.84;4963684;28;20054;-50
2021/05/04 03:50:07;;;;;;;3.30;1.50;;;;;;;9.63;49.40;99437.81;4971430;28;20030;-50
2021/05/04 03:52:36;;;;;;;3.15;1.60;;;;;;;9.61;49.26;99451.78;4969982;28;20045;-48
2021/05/04 03:55:02;;;;;;;2.50;1.38;;;;;;;9.56;49.41;99449.28;4967815;28;20042;-49
2021/05/04 03:57:28;;;;;;;4.15;1.60;;;;;;;9.54;49.66;99451.06;4968668;28;20077;-50
2021/05/04 03:59:54;;;;;;;3.78;1.90;;;;;;;9.49;49.48;99438.09;4968506;28;20146;-50
2021/05/04 04:02:19;;;;;;;3.78;1.50;;;;;;;9.47;50.75;99445.09;4965744;28;20133;-47
2021/05/04 04:04:45;;;;;;;3.17;1.60;;;;;;;9.42;50.39;99439.09;4973387;28;20026;-49
2021/05/04 04:07:11;;;;;;;3.30;1.80;;;;;;;9.39;50.20;99436.56;4970956;28;20471;-51
2021/05/04 04:09:37;;;;;;;3.67;1.50;;;;;;;9.37;50.02;99435.72;4970220;28;20490;-48
2021/05/04 04:12:03;;;;;;;3.92;1.40;;;;;;;9.34;50.50;99421.00;4967963;28;20126;-48
2021/05/04 04:14:29;;;;;;;3.88;1.70;;;;;;;9.30;50.21;99421.09;4968145;28;20056;-49
2021/05/04 04:16:54;;;;;;;3.15;1.70;;;;;;;9.29;51.24;99414.16;4970911;28;20049;-49
2021/05/04 04:19:20;;;;;;;3.42;1.88;;;;;;;9.23;50.97;99415.13;4973917;28;20722;-52
2021/05/04 04:21:48;;;;;;;2.75;1.50;;;;;;;9.22;50.90;99418.66;4977425;28;20552;-51
2021/05/04 04:24:15;;;;;;;3.10;1.50;;;;;;;9.17;50.95;99410.88;4972413;28;20046;-50
2021/05/04 04:26:40;;;;;;;4.47;2.10;;;;;;;9.15;50.74;99411.81;4972657;28;20050;-49
2021/05/04 04:29:06;;;;;;;4.05;1.63;;;;;;;9.12;50.33;99411.88;4972752;28;20083;-51
2021/05/04 04:31:32;;;;;;;3.17;1.52;;;;;;;9.10;50.74;99411.91;4971281;28;20273;-49
2021/05/04 04:33:57;;;;;;;3.50;1.60;;;;;;;9.07;51.50;99416.28;4899965;28;20066;-49
2021/05/04 04:36:23;;;;;;;2.83;1.50;;;;;;;9.02;51.10;99412.03;4973054;28;20041;-48
2021/05/04 04:38:49;;;;;;;4.28;1.60;;;;;;;9.01;51.29;99409.47;4967746;28;20495;-49
2021/05/04 04:41:14;;;;;;;3.60;1.83;;;;;;;8.97;50.74;99402.56;4968732;28;20042;-52
2021/05/04 04:43:40;;;;;;;3.08;1.60;;;;;;;8.96;51.07;99411.31;4970829;28;20077;-48
2021/05/04 04:46:06;;;;;;;2.97;1.48;;;;;;;8.94;51.09;99415.66;4975153;28;20054;-49
2021/05/04 04:48:31;;;;;;;3.78;1.50;;;;;;;8.93;51.51;99398.31;4975870;28;20100;-49
2021/05/04 04:50:57;;;;;;;2.85;1.50;;;;;;;8.90;51.10;99395.75;4970921;28;20066;-48
2021/05/04 04:53:23;;;;;;;3.55;1.70;;;;;;;8.86;51.75;99385.41;4967680;28;20038;-51
2021/05/04 04:55:48;;;;;;;3.40;1.60;;;;;;;8.84;50.91;99381.94;4974105;28;20578;-48
2021/05/04 04:58:14;;;;;;;2.45;1.33;;;;;;;8.84;50.67;99389.75;4956218;28;20148;-48
2021/05/04 05:00:39;;;;;;;3.85;1.48;;;;;;;8.82;51.18;99386.34;4956840;28;20108;-49
2021/05/04 05:03:05;;;;;;;3.10;1.30;;;;;;;8.81;51.15;99384.63;4964086;28;20284;-46
2021/05/04 05:05:31;;;;;;;3.67;1.40;;;;;;;8.79;51.54;99388.13;4969572;28;20042;-49
2021/05/04 05:07:57;;;;;;;3.08;1.40;;;;;;;8.76;52.03;99381.22;4973765;28;20058;-52
2021/05/04 05:10:22;;;;;;;3.63;1.50;;;;;;;8.76;51.40;99398.63;4975580;28;21121;-49
2021/05/04 05:12:58;;;;;;;2.80;1.52;;;;;;;8.75;51.09;99400.38;4970709;28;20038;-48
2021/05/04 05:15:24;;;;;;;3.17;1.40;;;;;;;8.73;51.64;99359.59;4973518;28;20061;-47
2021/05/04 05:17:50;;;;;;;3.30;1.40;;;;;;;8.71;51.76;99349.22;4969963;28;20135;-48
2021/05/04 05:20:15;;;;;;;3.47;1.45;;;;;;;8.68;51.74;99337.09;4967343;28;20093;-52
2021/05/04 05:22:44;;;;;;;4.00;1.48;;;;;;;8.67;51.86;99342.34;4971946;28;20049;-46
2021/05/04 05:25:10;;;;;;;4.22;1.65;;;;;;;8.66;51.77;99346.66;4973047;28;20038;-48
2021/05/04 05:27:36;;;;;;;3.28;1.50;;;;;;;8.66;51.53;99351.03;4967672;28;20083;-50
2021/05/04 05:30:05;;;;;;;4.35;1.70;;;;;;;8.63;52.05;99346.72;4972985;28;20467;-50
2021/05/04 05:32:31;;;;;;;4.40;1.63;;;;;;;8.63;51.78;99354.53;4961802;28;20046;-45
2021/05/04 05:34:57;;;;;;;2.45;1.40;;;;;;;8.62;52.00;99338.94;4951726;28;20034;-47
2021/05/04 05:37:22;;;;;;;2.13;1.25;;;;;;;8.63;51.74;99335.47;4977168;28;20630;-49
2021/05/04 05:39:51;;;;;;;3.65;1.50;;;;;;;8.62;53.18;99331.97;4970149;28;20129;-52
2021/05/04 05:42:18;;;;;;;;;;;;;;;8.59;53.13;99313.81;4972415;28;20042;-47
2021/05/04 05:44:44;;;;;;;2.88;1.40;;;;;;;8.57;53.10;99327.72;4972935;28;19961;-46
2021/05/04 05:47:09;;;;;;;2.10;1.30;;;;;;;8.56;52.60;99332.09;4978320;28;20400;-45
2021/05/04 05:49:37;;;;;;;2.78;1.40;;;;;;;8.56;52.11;99332.09;4972290;28;20499;-47
2021/05/04 05:52:03;;;;;;;2.28;1.50;;;;;;;8.56;52.25;99333.84;4969586;28;20677;-46
2021/05/04 05:54:33;;;;;;;2.55;1.27;;;;;;;8.55;52.61;99327.78;4973097;28;20105;-47
2021/05/04 05:56:58;;;;;;;;;;;;;;;8.55;54.19;99316.50;4967794;28;20470;-46
2021/05/04 05:59:24;;;;;;;3.97;1.60;;;;;;;8.52;53.38;99322.63;4968668;28;20493;-46
2021/05/04 06:01:50;;;;;;;2.22;1.52;;;;;;;8.50;53.96;99320.03;4972155;28;20046;-47
2021/05/04 06:04:16;;;;;;;3.20;1.65;;;;;;;8.49;53.87;99322.69;4969575;28;20034;-46
2021/05/04 06:06:41;;;;;;;2.88;1.35;;;;;;;8.49;53.61;99315.72;4965319;28;20066;-47
2021/05/04 06:09:08;;;;;;;2.75;1.30;;;;;;;8.49;53.38;99314.88;4968464;28;20384;-46
2021/05/04 06:11:34;;;;;;;3.90;1.52;;;;;;;8.49;53.35;99326.13;4968173;28;20581;-46
2021/05/04 06:13:59;;;;;;;2.78;1.35;;;;;;;8.51;53.19;99316.56;4967233;28;20355;-47
2021/05/04 06:16:25;;;;;;;2.40;1.20;;;;;;;8.50;54.38;99325.25;4972128;28;20030;-45
2021/05/04 06:18:51;;;;;;;3.70;1.35;;;;;;;8.49;54.85;99326.13;4950708;28;20046;-48
2021/05/04 06:21:17;;;;;;;2.85;1.48;;;;;;;8.50;54.44;99306.16;4961776;28;20049;-47
2021/05/04 06:23:42;;;;;;;2.70;1.10;;;;;;;8.49;55.17;99315.72;4964481;28;20049;-47
2021/05/04 06:26:08;;;;;;;3.50;1.30;;;;;;;8.51;54.87;99318.28;4953408;28;20517;-47
2021/05/04 06:28:35;;;;;;;2.90;1.40;;;;;;;8.52;54.53;99310.44;4975328;28;20074;-48
2021/05/04 06:31:02;;;;;;;3.88;1.40;;;;;;;8.53;54.77;99300.91;4968669;28;20477;-48
2021/05/04 06:33:28;;;;;;;3.88;1.50;;;;;;;8.55;54.81;99301.72;4967919;28;20031;-48
2021/05/04 06:35:54;;;;;;;3.05;1.38;;;;;;;8.57;54.57;99299.09;4967210;28;20513;-48
2021/05/04 06:38:19;;;;;;;3.03;1.55;;;;;;;8.58;54.21;99306.03;4971029;28;20507;-47
2021/05/04 06:40:47;;;;;;;2.50;1.30;;;;;;;8.59;54.18;99300.78;4958986;28;20034;-47
2021/05/04 06:43:13;;;;;;;3.65;1.60;;;;;;;8.59;55.78;99307.75;4969353;28;20336;-50
2021/05/04 06:45:39;;;;;;;3.88;1.30;;;;;;;8.61;54.99;99305.94;4968592;28;20591;-49
2021/05/04 06:48:06;;;;;;;2.45;1.30;;;;;;;8.62;55.11;99307.69;4973300;28;20538;-50
2021/05/04 06:50:31;;;;;;;2.65;1.20;;;;;;;8.63;55.05;99302.44;4967955;28;20263;-49
2021/05/04 06:52:57;;;;;;;3.33;1.50;;;;;;;8.63;55.75;99299.00;4971941;28;20088;-49
2021/05/04 06:55:23;;;;;;;3.25;1.35;;;;;;;8.62;55.88;99303.31;4959441;28;20483;-45
2021/05/04 06:57:50;;;;;;;2.92;1.17;;;;;;;8.64;55.97;99295.47;4951152;28;20792;-50
2021/05/04 07:00:16;;;;;;;3.38;1.63;;;;;;;8.63;56.02;99278.16;4960216;28;20477;-49
2021/05/04 07:02:42;;;;;;;2.97;1.60;;;;;;;8.62;56.09;99273.81;4965705;28;20080;-49
2021/05/04 07:05:09;;;;;;;2.78;1.60;;;;;;;8.63;56.44;99286.81;4965041;28;20519;-49
2021/05/04 07:07:34;;;;;;;3.22;1.55;;;;;;;8.62;55.57;99276.41;4971957;28;20064;-49
2021/05/04 07:10:02;;;;;;;3.20;1.30;;;;;;;8.62;56.06;99271.22;4957584;28;20050;-48
2021/05/04 07:12:28;;;;;;;3.47;1.40;;;;;;;8.61;56.05;99272.09;4967806;28;20357;-49
2021/05/04 07:14:54;;;;;;;3.70;1.42;;;;;;;8.63;55.51;99270.34;4975618;28;20050;-47
2021/05/04 07:17:22;;;;;;;2.40;1.50;;;;;;;8.63;56.04;99250.34;4969630;28;20499;-51
2021/05/04 07:19:48;;;;;;;2.38;1.20;;;;;;;8.61;56.06;99259.06;4967883;28;20672;-49
2021/05/04 07:22:13;;;;;;;2.97;1.50;;;;;;;8.63;55.92;99259.91;4970514;28;20034;-50
2021/05/04 07:24:39;;;;;;;2.58;1.38;;;;;;;8.63;55.80;99262.50;4968309;28;20058;-49
2021/05/04 07:27:06;;;;;;;2.42;1.30;;;;;;;8.66;56.11;99257.25;4968054;28;20542;-48
2021/05/04 07:29:35;;;;;;;2.78;1.20;;;;;;;8.68;55.93;99248.50;4962815;28;20060;-48
2021/05/04 07:32:01;;;;;;;2.85;1.35;;;;;;;8.66;55.67;99249.41;4948380;28;20255;-51
2021/05/04 07:34:27;;;;;;;5.43;1.65;;;;;;;8.63;56.49;99258.16;4964717;28;20255;-50
2021/05/04 07:36:52;;;;;;;2.38;1.20;;;;;;;8.64;56.06;99253.78;4951969;28;20497;-49
2021/05/04 07:39:18;;;;;;;2.30;1.30;;;;;;;8.65;56.22;99269.41;4957061;28;20054;-49
2021/05/04 07:41:44;;;;;;;2.30;1.15;;;;;;;8.71;55.96;99250.19;4970055;28;20096;-47
2021/05/04 07:44:10;;;;;;;2.50;1.20;;;;;;;8.70;55.87;99256.28;4960485;28;20420;-48
2021/05/04 07:46:35;;;;;;;2.83;1.20;;;;;;;8.68;56.21;99250.25;4960335;28;20093;-48
2021/05/04 07:49:02;;;;;;;3.72;1.20;;;;;;;8.67;55.63;99261.56;4967025;28;20478;-46
2021/05/04 07:51:28;;;;;;;2.42;1.23;;;;;;;8.66;55.70;99258.09;4967960;28;20093;-47
2021/05/04 07:53:53;;;;;;;2.15;1.05;;;;;;;8.68;56.19;99252.84;4968101;28;20049;-48
2021/05/04 07:56:19;;;;;;;3.88;1.40;;;;;;;8.69;56.07;99251.97;4967479;28;20057;-50
2021/05/04 07:58:45;;;;;;;2.13;1.10;;;;;;;8.68;56.33;99248.50;4975162;28;20422;-47
2021/05/04 08:01:10;;;;;;;3.10;1.33;;;;;;;8.70;56.39;99256.28;4966551;28;20076;-49
2021/05/04 08:03:36;;;;;;;2.45;1.20;;;;;;;8.71;56.46;99251.94;4969068;28;20038;-49
2021/05/04 08:06:02;;;;;;;2.13;1.10;;;;;;;8.69;56.31;99251.97;4970913;28;20125;-47
2021/05/04 08:08:28;;;;;;;2.83;1.30;;;;;;;8.68;56.17;99264.13;4971689;28;20069;-47
2021/05/04 08:10:53;;;;;;;2.65;1.15;;;;;;;8.71;56.21;99265.84;4967549;28;20044;-48
2021/05/04 08:13:20;;;;;;;2.33;1.30;;;;;;;8.74;56.86;99259.72;4974477;28;20117;-49
2021/05/04 08:15:49;;;;;;;3.22;1.35;;;;;;;8.76;57.00;99263.97;4953481;28;20645;-50
2021/05/04 08:18:16;;;;;;;2.05;1.30;;;;;;;8.77;57.18;99270.91;4961460;28;20730;-50
2021/05/04 08:20:53;;;;;;;2.55;1.00;;;;;;;8.77;57.11;99272.66;4969158;28;20403;-49
2021/05/04 08:23:21;;;;;;;2.97;1.20;;;;;;;8.79;57.06;99274.34;4969767;28;20928;-48
2021/05/04 08:25:47;;;;;;;2.50;1.17;;;;;;;8.81;58.01;99266.50;4967735;28;20041;-49
2021/05/04 08:28:13;;;;;;;2.55;1.23;;;;;;;8.80;56.66;99265.63;4947544;28;20035;-49
2021/05/04 08:30:38;;;;;;;3.17;1.30;;;;;;;8.81;56.88;99256.09;4961679;28;20042;-49
2021/05/04 08:33:04;;;;;;;6.13;2.10;;;;;;;8.83;57.29;99256.91;4966813;28;20050;-49
2021/05/04 08:35:30;;;;;;;2.03;1.17;;;;;;;8.84;57.27;99258.63;4961921;28;20418;-50
2021/05/04 08:37:56;;;;;;;2.55;1.30;;;;;;;8.85;57.56;99279.44;4954887;28;20085;-49
2021/05/04 08:40:25;;;;;;;4.20;1.17;;;;;;;8.85;57.80;99258.59;4974497;28;20542;-49
2021/05/04 08:42:51;;;;;;;;;;;;;;;8.85;57.50;99268.16;4966101;28;20038;-48
2021/05/04 08:45:17;;;;;;;2.78;1.52;;;;;;;8.85;58.09;99269.00;4953726;28;20224;-49
2021/05/04 08:47:50;;;;;;;3.85;1.48;;;;;;;8.87;58.94;99276.78;4959600;28;20274;-49
2021/05/04 08:50:20;;;;;;;2.92;1.33;;;;;;;8.86;58.27;99273.34;4968328;28;20639;-49
2021/05/04 08:52:48;;;;;;;2.80;1.20;;;;;;;8.88;58.18;99267.25;4951507;28;20149;-49
2021/05/04 08:55:14;;;;;;;4.30;1.60;;;;;;;8.83;58.80;99268.19;4963679;28;20129;-49
2021/05/04 08:57:40;;;;;;;1.95;1.20;;;;;;;8.85;59.15;99266.41;4966710;28;20105;-49
2021/05/04 09:00:09;;;;;;;3.17;1.55;;;;;;;8.84;58.37;99256.84;4960951;28;20038;-48
2021/05/04 09:02:59;;;;;;;2.63;1.40;;;;;;;8.84;59.06;99238.63;4952949;28;20039;-49
2021/05/04 09:05:35;;;;;;;2.42;1.42;;;;;;;8.84;58.49;99236.00;4965334;28;20754;-48
2021/05/04 09:08:05;;;;;;;2.53;1.35;;;;;;;8.86;58.71;99223.81;4964301;28;20065;-48
2021/05/04 09:10:38;;;;;;;2.17;1.38;;;;;;;8.88;59.63;99215.97;4967709;28;20052;-49
2021/05/04 09:13:15;;;;;;;3.97;1.90;;;;;;;8.91;60.62;99218.50;4966149;28;20054;-49
2021/05/04 09:19:05;;;;;;;2.60;1.50;;;;;;;8.96;59.53;99206.25;4966857;28;20371;-50
2021/05/04 09:21:41;;;;;;;2.50;1.52;;;;;;;9.01;59.61;99180.06;4969457;28;20438;-47
2021/05/04 09:24:19;;;;;;;2.42;1.33;;;;;;;9.04;59.71;99195.63;4964494;28;20129;-49
2021/05/04 09:26:45;;;;;;;4.35;1.85;;;;;;;9.06;59.35;99178.22;4959286;28;20185;-50
2021/05/04 09:29:11;;;;;;;5.57;2.28;;;;;;;9.07;59.59;99185.16;4971643;28;20074;-50
2021/05/04 09:31:39;;;;;;;4.05;2.08;;;;;;;9.09;59.87;99193.78;4966177;28;20050;-49
2021/05/04 09:34:10;;;;;;;3.25;2.15;;;;;;;9.11;59.89;99180.72;4972157;28;20038;-48
2021/05/04 09:36:52;;;;;;;4.00;2.20;;;;;;;9.13;60.47;99205.88;4973662;28;20050;-50
2021/05/04 09:39:32;;;;;;;3.70;2.20;;;;;;;9.15;59.98;99216.25;4954786;28;161889;-48
2021/05/04 09:42:00;;;;;;;5.25;2.30;;;;;;;9.15;59.89;99198.88;4968239;28;20049;-48
2021/05/04 09:44:43;;;;;;;4.50;2.20;;;;;;;9.16;60.49;99197.97;4981029;28;20034;-50
2021/05/04 09:47:13;;;;;;;5.55;2.03;;;;;;;9.18;60.32;99193.59;4969691;28;20674;-49
2021/05/04 09:49:40;;;;;;;4.00;2.05;;;;;;;9.22;60.39;99198.72;4969350;28;20053;-49
2021/05/04 09:52:17;;;;;;;4.25;1.75;;;;;;;9.24;60.53;99202.19;4972211;28;20130;-48
2021/05/04 09:54:42;;;;;;;4.00;1.65;;;;;;;9.26;61.25;99203.00;4969210;28;20046;-50
2021/05/04 09:57:31;;;;;;;3.65;1.80;;;;;;;9.28;61.15;99207.28;4969458;28;20064;-51
2021/05/04 09:59:58;;;;;;;4.22;1.50;;;;;;;9.34;61.73;99211.50;4967760;28;20065;-48
2021/05/04 10:02:24;;;;;;;4.20;1.42;;;;;;;9.41;60.90;99192.19;4971133;28;20038;-45
2021/05/04 10:04:52;;;;;;;4.90;1.60;;;;;;;9.41;60.67;99166.09;4969105;28;20503;-47
2021/05/04 10:07:20;;;;;;;3.55;1.35;;;;;;;9.43;61.49;99177.38;4971083;28;20034;-46
2021/05/04 10:09:47;;;;;;;3.70;1.30;;;;;;;9.44;60.64;99171.28;4968243;28;20046;-47
2021/05/04 10:12:13;;;;;;;3.47;1.30;;;;;;;9.48;61.20;99170.28;4968911;28;20600;-47
2021/05/04 10:14:44;;;;;;;2.53;1.10;;;;;;;9.50;60.94;99199.81;4971390;28;20365;-48
2021/05/04 10:17:10;;;;;;;2.08;1.00;;;;;;;9.53;60.69;99171.03;4971906;28;20096;-48
2021/05/04 10:19:37;;;;;;;2.30;1.20;;;;;;;9.58;61.96;99203.97;4974784;28;20050;-48
2021/05/04 10:22:06;;;;;;;3.50;1.20;;;;;;;9.58;61.35;99201.38;4981568;28;20557;-48
2021/05/04 10:24:33;;;;;;;4.07;1.20;;;;;;;9.60;61.78;99173.50;4983803;28;20072;-48
2021/05/04 10:27:04;;;;;;;6.10;1.30;;;;;;;9.60;62.49;99192.63;4968437;28;20042;-47
2021/05/04 10:29:31;;;;;;;2.80;1.20;;;;;;;9.61;62.10;99203.91;4971401;28;20985;-48
2021/05/04 10:31:58;;;;;;;3.58;1.20;;;;;;;9.63;62.34;99202.13;4971344;28;20038;-48
2021/05/04 10:34:33;;;;;;;3.60;1.35;;;;;;;9.65;62.31;99202.94;4966239;28;20522;-47
2021/05/04 10:37:14;;;;;;;5.00;1.10;;;;;;;9.65;62.12;99214.25;4965773;28;20279;-46
2021/05/04 10:39:47;;;;;;;4.32;1.40;;;;;;;9.68;62.33;99208.09;4968189;28;20046;-47
2021/05/04 10:42:19;;;;;;;5.78;1.25;;;;;;;9.72;62.39;99207.13;4979902;28;20057;-47
2021/05/04 10:45:13;;;;;;;5.60;1.80;;;;;;;9.78;61.60;99206.13;4969793;28;20137;-48
2021/05/04 10:47:39;;;;;;;7.72;1.42;;;;;;;9.82;61.73;99210.38;4967844;28;20038;-45
2021/05/04 10:50:09;;;;;;;12.10;2.42;;;;;;;9.86;62.32;99206.78;4965878;28;20584;-45
2021/05/04 10:52:59;;;;;;;7.47;1.30;;;;;;;9.93;61.88;99202.25;4969341;28;21095;-48
2021/05/04 10:55:53;;;;;;;8.93;2.03;;;;;;;10.03;61.59;99214.19;4969929;28;20085;-46
2021/05/04 10:58:21;;;;;;;8.57;1.50;;;;;;;10.08;61.69;99219.28;4968991;28;20109;-48
2021/05/04 11:01:04;;;;;;;7.63;2.22;;;;;;;10.11;62.79;99206.16;4967046;28;20050;-43
2021/05/04 11:03:30;;;;;;;11.02;2.42;;;;;;;10.15;62.42;99219.09;4970427;28;20080;-46
2021/05/04 11:06:02;;;;;;;10.68;1.60;;;;;;;10.22;62.40;99184.06;4967199;28;20137;-47
2021/05/04 11:08:43;;;;;;;8.88;3.13;;;;;;;10.34;63.10;99201.22;4970821;28;20559;-45
2021/05/04 11:11:43;;;;;;;5.65;1.60;;;;;;;10.48;62.92;99193.00;4966944;28;20616;-48
2021/05/04 11:14:15;;;;;;;7.53;2.25;;;;;;;10.62;63.30;99218.72;4967329;28;20813;-46
2021/05/04 11:16:53;;;;;;;10.20;1.75;;;;;;;10.74;61.33;99212.28;4969999;28;20666;-44
2021/05/04 11:19:22;;;;;;;4.90;1.40;;;;;;;10.84;60.91;99228.56;4968389;28;20040;-46
2021/05/04 11:22:02;;;;;;;5.85;1.90;;;;;;;10.92;60.40;99225.75;4975522;28;20529;-50
2021/05/04 11:24:31;;;;;;;4.82;1.60;;;;;;;10.96;60.42;99222.13;4971543;28;20115;-47
2021/05/04 11:27:13;;;;;;;5.25;1.40;;;;;;;11.00;59.55;99245.53;4963573;28;20030;-47
2021/05/04 11:29:40;;;;;;;6.47;2.42;;;;;;;11.05;59.04;99237.56;4973126;28;20502;-46
2021/05/04 11:32:09;;;;;;;6.05;1.58;;;;;;;11.07;59.41;99238.34;4969579;28;20038;-47
2021/05/04 11:34:45;;;;;;;5.28;1.50;;;;;;;11.10;59.05;99274.03;4966514;28;20047;-48
2021/05/04 11:37:38;;;;;;;3.92;1.95;;;;;;;11.13;58.23;99256.50;4955730;28;20057;-46
2021/05/04 11:40:07;;;;;;;8.15;1.95;;;;;;;11.20;57.68;99263.25;4953588;28;20817;-47
2021/05/04 11:42:45;;;;;;;4.95;1.40;;;;;;;11.25;57.68;99269.19;4957311;28;20058;-46
2021/05/04 11:45:21;;;;;;;5.50;1.52;;;;;;;11.30;57.25;99262.97;4954544;28;20049;-46